sensor_id;sensor_type;location;lat;lon;timestamp;P1;durP1;ratioP1;P2;durP2;ratioP2
46084;SDS011;31823;47.032;8.310;2023-04-25T00:01:55;10.05;;;3.20;;
46084;SDS011;31823;47.032;8.310;2023-04-25T00:04:21;8.90;;;3.28;;
46084;SDS011;31823;47.032;8.310;2023-04-25T00:06:47;7.63;;;2.78;;
46084;SDS011;31823;47.032;8.310;2023-04-25T00:09:13;4.43;;;2.20;;
46084;SDS011;31823;47.032;8.310;2023-04-25T00:11:39;5.30;;;2.17;;
46084;SDS011;31823;47.032;8.310;2023-04-25T00:14:05;5.10;;;2.60;;
46084;SDS011;31823;47.032;8.310;2023-04-25T00:16:31;10.70;;;2.95;;
46084;SDS011;31823;47.032;8.310;2023-04-25T00:18:59;3.85;;;2.33;;
46084;SDS011;31823;47.032;8.310;2023-04-25T00:21:26;6.25;;;2.70;;
46084;SDS011;31823;47.032;8.310;2023-04-25T00:23:53;6.10;;;2.22;;
46084;SDS011;31823;47.032;8.310;2023-04-25T00:26:19;8.35;;;3.00;;
46084;SDS011;31823;47.032;8.310;2023-04-25T00:28:45;10.68;;;2.63;;
46084;SDS011;31823;47.032;8.310;2023-04-25T00:31:11;4.63;;;2.42;;
46084;SDS011;31823;47.032;8.310;2023-04-25T00:33:37;9.00;;;2.72;;
46084;SDS011;31823;47.032;8.310;2023-04-25T00:36:03;6.32;;;2.45;;
46084;SDS011;31823;47.032;8.310;2023-04-25T00:38:28;2.53;;;2.20;;
46084;SDS011;31823;47.032;8.310;2023-04-25T00:40:54;7.07;;;2.53;;
46084;SDS011;31823;47.032;8.310;2023-04-25T00:43:20;5.25;;;2.47;;
46084;SDS011;31823;47.032;8.310;2023-04-25T00:45:46;4.43;;;2.38;;
46084;SDS011;31823;47.032;8.310;2023-04-25T00:48:13;6.50;;;2.53;;
46084;SDS011;31823;47.032;8.310;2023-04-25T00:50:39;10.43;;;2.60;;
46084;SDS011;31823;47.032;8.310;2023-04-25T00:53:05;5.80;;;2.80;;
46084;SDS011;31823;47.032;8.310;2023-04-25T00:55:31;8.20;;;2.33;;
46084;SDS011;31823;47.032;8.310;2023-04-25T00:57:59;3.80;;;2.42;;
46084;SDS011;31823;47.032;8.310;2023-04-25T01:00:25;6.93;;;2.67;;
46084;SDS011;31823;47.032;8.310;2023-04-25T01:02:51;5.40;;;2.90;;
46084;SDS011;31823;47.032;8.310;2023-04-25T01:05:17;5.30;;;2.60;;
46084;SDS011;31823;47.032;8.310;2023-04-25T01:07:44;8.13;;;2.40;;
46084;SDS011;31823;47.032;8.310;2023-04-25T01:10:10;9.73;;;2.53;;
46084;SDS011;31823;47.032;8.310;2023-04-25T01:12:36;7.78;;;2.75;;
46084;SDS011;31823;47.032;8.310;2023-04-25T01:15:01;5.80;;;2.35;;
46084;SDS011;31823;47.032;8.310;2023-04-25T01:17:27;7.70;;;2.60;;
46084;SDS011;31823;47.032;8.310;2023-04-25T01:19:54;8.10;;;2.65;;
46084;SDS011;31823;47.032;8.310;2023-04-25T01:22:20;8.45;;;2.72;;
46084;SDS011;31823;47.032;8.310;2023-04-25T01:24:46;6.47;;;2.67;;
46084;SDS011;31823;47.032;8.310;2023-04-25T01:27:12;5.35;;;2.40;;
46084;SDS011;31823;47.032;8.310;2023-04-25T01:29:37;5.25;;;2.92;;
46084;SDS011;31823;47.032;8.310;2023-04-25T01:32:04;5.47;;;2.30;;
46084;SDS011;31823;47.032;8.310;2023-04-25T01:34:30;7.95;;;2.90;;
46084;SDS011;31823;47.032;8.310;2023-04-25T01:36:56;8.40;;;2.47;;
46084;SDS011;31823;47.032;8.310;2023-04-25T01:39:24;8.90;;;2.97;;
46084;SDS011;31823;47.032;8.310;2023-04-25T01:41:50;4.50;;;2.65;;
46084;SDS011;31823;47.032;8.310;2023-04-25T01:44:16;4.95;;;2.20;;
46084;SDS011;31823;47.032;8.310;2023-04-25T01:46:41;3.65;;;2.30;;
46084;SDS011;31823;47.032;8.310;2023-04-25T01:49:07;7.80;;;2.30;;
46084;SDS011;31823;47.032;8.310;2023-04-25T01:51:33;6.65;;;2.42;;
46084;SDS011;31823;47.032;8.310;2023-04-25T01:53:59;4.63;;;2.30;;
46084;SDS011;31823;47.032;8.310;2023-04-25T01:56:29;4.35;;;2.45;;
46084;SDS011;31823;47.032;8.310;2023-04-25T01:58:56;9.07;;;2.75;;
46084;SDS011;31823;47.032;8.310;2023-04-25T02:01:22;8.57;;;3.15;;
46084;SDS011;31823;47.032;8.310;2023-04-25T02:03:47;6.80;;;2.78;;
46084;SDS011;31823;47.032;8.310;2023-04-25T02:06:13;5.78;;;1.95;;
46084;SDS011;31823;47.032;8.310;2023-04-25T02:08:39;3.72;;;2.25;;
46084;SDS011;31823;47.032;8.310;2023-04-25T02:11:04;4.13;;;2.30;;
46084;SDS011;31823;47.032;8.310;2023-04-25T02:13:30;7.93;;;2.17;;
46084;SDS011;31823;47.032;8.310;2023-04-25T02:15:55;9.85;;;2.63;;
46084;SDS011;31823;47.032;8.310;2023-04-25T02:18:22;6.53;;;2.50;;
46084;SDS011;31823;47.032;8.310;2023-04-25T02:20:48;5.03;;;2.53;;
46084;SDS011;31823;47.032;8.310;2023-04-25T02:23:13;5.53;;;2.20;;
46084;SDS011;31823;47.032;8.310;2023-04-25T02:25:40;13.00;;;2.78;;
46084;SDS011;31823;47.032;8.310;2023-04-25T02:28:06;7.22;;;2.45;;
46084;SDS011;31823;47.032;8.310;2023-04-25T02:30:31;2.10;;;1.90;;
46084;SDS011;31823;47.032;8.310;2023-04-25T02:32:57;10.57;;;2.70;;
46084;SDS011;31823;47.032;8.310;2023-04-25T02:35:22;6.63;;;2.50;;
46084;SDS011;31823;47.032;8.310;2023-04-25T02:37:48;3.47;;;2.25;;
46084;SDS011;31823;47.032;8.310;2023-04-25T02:40:13;4.80;;;2.50;;
46084;SDS011;31823;47.032;8.310;2023-04-25T02:42:39;5.40;;;2.40;;
46084;SDS011;31823;47.032;8.310;2023-04-25T02:45:05;3.08;;;2.20;;
46084;SDS011;31823;47.032;8.310;2023-04-25T02:47:31;4.07;;;2.45;;
46084;SDS011;31823;47.032;8.310;2023-04-25T02:49:56;5.30;;;2.22;;
46084;SDS011;31823;47.032;8.310;2023-04-25T02:52:22;4.60;;;2.30;;
46084;SDS011;31823;47.032;8.310;2023-04-25T02:54:47;3.92;;;2.28;;
46084;SDS011;31823;47.032;8.310;2023-04-25T02:57:13;5.00;;;3.15;;
46084;SDS011;31823;47.032;8.310;2023-04-25T02:59:39;7.97;;;2.58;;
46084;SDS011;31823;47.032;8.310;2023-04-25T03:02:05;6.82;;;2.50;;
46084;SDS011;31823;47.032;8.310;2023-04-25T03:04:30;7.05;;;2.47;;
46084;SDS011;31823;47.032;8.310;2023-04-25T03:06:56;9.73;;;2.42;;
46084;SDS011;31823;47.032;8.310;2023-04-25T03:09:22;4.55;;;1.85;;
46084;SDS011;31823;47.032;8.310;2023-04-25T03:11:47;8.40;;;2.53;;
46084;SDS011;31823;47.032;8.310;2023-04-25T03:14:13;5.68;;;2.30;;
46084;SDS011;31823;47.032;8.310;2023-04-25T03:16:38;5.57;;;2.15;;
46084;SDS011;31823;47.032;8.310;2023-04-25T03:19:04;8.40;;;2.78;;
46084;SDS011;31823;47.032;8.310;2023-04-25T03:21:30;7.55;;;2.42;;
46084;SDS011;31823;47.032;8.310;2023-04-25T03:23:57;8.85;;;2.28;;
46084;SDS011;31823;47.032;8.310;2023-04-25T03:26:24;4.88;;;2.40;;
46084;SDS011;31823;47.032;8.310;2023-04-25T03:28:49;4.72;;;2.13;;
46084;SDS011;31823;47.032;8.310;2023-04-25T03:31:15;3.78;;;2.22;;
46084;SDS011;31823;47.032;8.310;2023-04-25T03:33:41;6.13;;;1.83;;
46084;SDS011;31823;47.032;8.310;2023-04-25T03:36:06;6.03;;;2.63;;
46084;SDS011;31823;47.032;8.310;2023-04-25T03:38:32;6.68;;;2.70;;
46084;SDS011;31823;47.032;8.310;2023-04-25T03:40:58;6.75;;;2.38;;
46084;SDS011;31823;47.032;8.310;2023-04-25T03:43:23;4.57;;;2.38;;
46084;SDS011;31823;47.032;8.310;2023-04-25T03:45:49;4.22;;;2.22;;
46084;SDS011;31823;47.032;8.310;2023-04-25T03:48:15;4.63;;;2.25;;
46084;SDS011;31823;47.032;8.310;2023-04-25T03:50:41;5.68;;;2.30;;
46084;SDS011;31823;47.032;8.310;2023-04-25T03:53:06;6.75;;;2.40;;
46084;SDS011;31823;47.032;8.310;2023-04-25T03:55:32;7.47;;;2.53;;
46084;SDS011;31823;47.032;8.310;2023-04-25T03:57:57;6.18;;;2.08;;
46084;SDS011;31823;47.032;8.310;2023-04-25T04:00:23;4.07;;;1.98;;
46084;SDS011;31823;47.032;8.310;2023-04-25T04:02:50;9.43;;;2.30;;
46084;SDS011;31823;47.032;8.310;2023-04-25T04:05:15;6.25;;;2.25;;
46084;SDS011;31823;47.032;8.310;2023-04-25T04:07:41;4.10;;;2.03;;
46084;SDS011;31823;47.032;8.310;2023-04-25T04:10:08;10.35;;;2.40;;
46084;SDS011;31823;47.032;8.310;2023-04-25T04:12:34;3.78;;;2.10;;
46084;SDS011;31823;47.032;8.310;2023-04-25T04:15:01;5.63;;;2.70;;
46084;SDS011;31823;47.032;8.310;2023-04-25T04:17:30;7.13;;;1.95;;
46084;SDS011;31823;47.032;8.310;2023-04-25T04:19:55;3.83;;;1.90;;
46084;SDS011;31823;47.032;8.310;2023-04-25T04:22:21;9.07;;;2.72;;
46084;SDS011;31823;47.032;8.310;2023-04-25T04:24:47;2.72;;;1.80;;
46084;SDS011;31823;47.032;8.310;2023-04-25T04:27:14;5.90;;;2.25;;
46084;SDS011;31823;47.032;8.310;2023-04-25T04:29:42;2.95;;;2.35;;
46084;SDS011;31823;47.032;8.310;2023-04-25T04:32:08;6.57;;;2.08;;
46084;SDS011;31823;47.032;8.310;2023-04-25T04:34:34;4.40;;;2.65;;
46084;SDS011;31823;47.032;8.310;2023-04-25T04:37:00;4.30;;;2.60;;
46084;SDS011;31823;47.032;8.310;2023-04-25T04:39:26;4.32;;;2.08;;
46084;SDS011;31823;47.032;8.310;2023-04-25T04:41:51;3.45;;;2.33;;
46084;SDS011;31823;47.032;8.310;2023-04-25T04:44:17;3.92;;;2.63;;
46084;SDS011;31823;47.032;8.310;2023-04-25T04:46:43;5.65;;;2.58;;
46084;SDS011;31823;47.032;8.310;2023-04-25T04:49:09;6.32;;;2.65;;
46084;SDS011;31823;47.032;8.310;2023-04-25T04:51:36;4.53;;;2.50;;
46084;SDS011;31823;47.032;8.310;2023-04-25T04:54:02;7.55;;;2.45;;
46084;SDS011;31823;47.032;8.310;2023-04-25T04:56:28;4.00;;;2.58;;
46084;SDS011;31823;47.032;8.310;2023-04-25T04:58:56;3.55;;;2.70;;
46084;SDS011;31823;47.032;8.310;2023-04-25T05:01:22;2.47;;;2.15;;
46084;SDS011;31823;47.032;8.310;2023-04-25T05:03:48;7.28;;;2.60;;
46084;SDS011;31823;47.032;8.310;2023-04-25T05:06:14;3.70;;;2.28;;
46084;SDS011;31823;47.032;8.310;2023-04-25T05:08:41;4.22;;;2.38;;
46084;SDS011;31823;47.032;8.310;2023-04-25T05:11:06;3.33;;;2.35;;
46084;SDS011;31823;47.032;8.310;2023-04-25T05:13:32;6.57;;;2.30;;
46084;SDS011;31823;47.032;8.310;2023-04-25T05:15:57;3.42;;;2.03;;
46084;SDS011;31823;47.032;8.310;2023-04-25T05:18:23;3.00;;;2.05;;
46084;SDS011;31823;47.032;8.310;2023-04-25T05:20:48;2.58;;;1.98;;
46084;SDS011;31823;47.032;8.310;2023-04-25T05:23:14;2.50;;;1.60;;
46084;SDS011;31823;47.032;8.310;2023-04-25T05:25:40;3.70;;;2.50;;
46084;SDS011;31823;47.032;8.310;2023-04-25T05:28:05;4.18;;;1.70;;
46084;SDS011;31823;47.032;8.310;2023-04-25T05:30:31;3.05;;;1.88;;
46084;SDS011;31823;47.032;8.310;2023-04-25T05:32:57;2.75;;;1.70;;
46084;SDS011;31823;47.032;8.310;2023-04-25T05:35:22;2.42;;;1.60;;
46084;SDS011;31823;47.032;8.310;2023-04-25T05:37:48;2.25;;;1.50;;
46084;SDS011;31823;47.032;8.310;2023-04-25T05:40:14;1.75;;;1.40;;
46084;SDS011;31823;47.032;8.310;2023-04-25T05:42:39;1.55;;;1.38;;
46084;SDS011;31823;47.032;8.310;2023-04-25T05:45:05;1.88;;;1.30;;
46084;SDS011;31823;47.032;8.310;2023-04-25T05:47:31;2.53;;;1.77;;
46084;SDS011;31823;47.032;8.310;2023-04-25T05:49:56;3.22;;;1.55;;
46084;SDS011;31823;47.032;8.310;2023-04-25T05:52:22;1.65;;;1.50;;
46084;SDS011;31823;47.032;8.310;2023-04-25T05:54:48;2.17;;;1.40;;
46084;SDS011;31823;47.032;8.310;2023-04-25T05:57:46;2.20;;;2.00;;
46084;SDS011;31823;47.032;8.310;2023-04-25T06:00:07;2.45;;;1.40;;
46084;SDS011;31823;47.032;8.310;2023-04-25T06:02:34;1.60;;;1.50;;
46084;SDS011;31823;47.032;8.310;2023-04-25T06:05:00;3.42;;;2.60;;
46084;SDS011;31823;47.032;8.310;2023-04-25T06:07:28;1.52;;;1.40;;
46084;SDS011;31823;47.032;8.310;2023-04-25T06:09:54;5.07;;;2.08;;
46084;SDS011;31823;47.032;8.310;2023-04-25T06:12:20;3.20;;;1.73;;
46084;SDS011;31823;47.032;8.310;2023-04-25T06:14:46;2.15;;;1.60;;
46084;SDS011;31823;47.032;8.310;2023-04-25T06:17:11;3.92;;;1.83;;
46084;SDS011;31823;47.032;8.310;2023-04-25T06:19:37;3.88;;;1.77;;
46084;SDS011;31823;47.032;8.310;2023-04-25T06:22:02;2.03;;;1.60;;
46084;SDS011;31823;47.032;8.310;2023-04-25T06:24:28;2.33;;;1.80;;
46084;SDS011;31823;47.032;8.310;2023-04-25T06:26:54;2.75;;;1.83;;
46084;SDS011;31823;47.032;8.310;2023-04-25T06:29:20;4.93;;;1.70;;
46084;SDS011;31823;47.032;8.310;2023-04-25T06:31:45;2.63;;;1.92;;
46084;SDS011;31823;47.032;8.310;2023-04-25T06:34:11;2.90;;;1.70;;
46084;SDS011;31823;47.032;8.310;2023-04-25T06:36:37;3.67;;;1.92;;
46084;SDS011;31823;47.032;8.310;2023-04-25T06:39:02;2.00;;;1.80;;
46084;SDS011;31823;47.032;8.310;2023-04-25T06:41:28;2.40;;;1.92;;
46084;SDS011;31823;47.032;8.310;2023-04-25T06:43:54;2.83;;;2.00;;
46084;SDS011;31823;47.032;8.310;2023-04-25T06:46:19;4.63;;;2.03;;
46084;SDS011;31823;47.032;8.310;2023-04-25T06:48:45;3.58;;;2.17;;
46084;SDS011;31823;47.032;8.310;2023-04-25T06:51:10;6.68;;;2.30;;
46084;SDS011;31823;47.032;8.310;2023-04-25T06:53:38;6.35;;;2.53;;
46084;SDS011;31823;47.032;8.310;2023-04-25T06:56:04;4.25;;;2.33;;
46084;SDS011;31823;47.032;8.310;2023-04-25T06:58:29;4.57;;;2.85;;
46084;SDS011;31823;47.032;8.310;2023-04-25T07:00:55;3.80;;;2.17;;
46084;SDS011;31823;47.032;8.310;2023-04-25T07:03:21;7.13;;;2.63;;
46084;SDS011;31823;47.032;8.310;2023-04-25T07:05:46;2.92;;;2.20;;
46084;SDS011;31823;47.032;8.310;2023-04-25T07:08:12;3.70;;;2.25;;
46084;SDS011;31823;47.032;8.310;2023-04-25T07:10:37;4.40;;;2.47;;
46084;SDS011;31823;47.032;8.310;2023-04-25T07:13:04;6.68;;;2.50;;
46084;SDS011;31823;47.032;8.310;2023-04-25T07:15:29;4.60;;;2.50;;
46084;SDS011;31823;47.032;8.310;2023-04-25T07:17:55;6.68;;;2.67;;
46084;SDS011;31823;47.032;8.310;2023-04-25T07:20:20;6.00;;;2.40;;
46084;SDS011;31823;47.032;8.310;2023-04-25T07:22:46;2.53;;;2.08;;
46084;SDS011;31823;47.032;8.310;2023-04-25T07:25:12;3.58;;;2.53;;
46084;SDS011;31823;47.032;8.310;2023-04-25T07:27:37;2.53;;;1.80;;
46084;SDS011;31823;47.032;8.310;2023-04-25T07:30:04;3.45;;;1.70;;
46084;SDS011;31823;47.032;8.310;2023-04-25T07:32:30;2.53;;;1.70;;
46084;SDS011;31823;47.032;8.310;2023-04-25T07:34:55;2.20;;;1.92;;
46084;SDS011;31823;47.032;8.310;2023-04-25T07:37:21;2.65;;;1.73;;
46084;SDS011;31823;47.032;8.310;2023-04-25T07:39:47;6.07;;;1.95;;
46084;SDS011;31823;47.032;8.310;2023-04-25T07:42:12;3.65;;;2.20;;
46084;SDS011;31823;47.032;8.310;2023-04-25T07:44:38;3.70;;;2.38;;
46084;SDS011;31823;47.032;8.310;2023-04-25T07:47:08;4.07;;;2.88;;
46084;SDS011;31823;47.032;8.310;2023-04-25T07:49:34;2.38;;;2.03;;
46084;SDS011;31823;47.032;8.310;2023-04-25T07:52:01;5.13;;;2.33;;
46084;SDS011;31823;47.032;8.310;2023-04-25T07:54:27;5.00;;;2.40;;
46084;SDS011;31823;47.032;8.310;2023-04-25T07:56:53;3.78;;;2.75;;
46084;SDS011;31823;47.032;8.310;2023-04-25T07:59:19;4.95;;;3.85;;
46084;SDS011;31823;47.032;8.310;2023-04-25T08:01:45;7.40;;;5.00;;
46084;SDS011;31823;47.032;8.310;2023-04-25T08:04:10;19.20;;;17.58;;
46084;SDS011;31823;47.032;8.310;2023-04-25T08:06:36;10.10;;;9.20;;
46084;SDS011;31823;47.032;8.310;2023-04-25T08:09:02;5.35;;;2.67;;
46084;SDS011;31823;47.032;8.310;2023-04-25T08:11:28;4.60;;;2.45;;
46084;SDS011;31823;47.032;8.310;2023-04-25T08:13:54;3.42;;;2.67;;
46084;SDS011;31823;47.032;8.310;2023-04-25T08:16:19;12.00;;;10.90;;
46084;SDS011;31823;47.032;8.310;2023-04-25T08:18:45;8.50;;;7.78;;
46084;SDS011;31823;47.032;8.310;2023-04-25T08:21:10;8.93;;;7.93;;
46084;SDS011;31823;47.032;8.310;2023-04-25T08:23:37;4.18;;;3.38;;
46084;SDS011;31823;47.032;8.310;2023-04-25T08:26:03;6.38;;;2.78;;
46084;SDS011;31823;47.032;8.310;2023-04-25T08:28:29;6.22;;;3.10;;
46084;SDS011;31823;47.032;8.310;2023-04-25T08:30:55;4.85;;;3.60;;
46084;SDS011;31823;47.032;8.310;2023-04-25T08:33:21;9.50;;;8.60;;
46084;SDS011;31823;47.032;8.310;2023-04-25T08:35:46;6.18;;;2.78;;
46084;SDS011;31823;47.032;8.310;2023-04-25T08:38:12;4.65;;;2.53;;
46084;SDS011;31823;47.032;8.310;2023-04-25T08:40:38;3.30;;;2.58;;
46084;SDS011;31823;47.032;8.310;2023-04-25T08:43:05;6.43;;;4.43;;
46084;SDS011;31823;47.032;8.310;2023-04-25T08:45:38;5.30;;;4.20;;
46084;SDS011;31823;47.032;8.310;2023-04-25T08:48:10;6.30;;;3.20;;
46084;SDS011;31823;47.032;8.310;2023-04-25T08:50:40;4.32;;;3.00;;
46084;SDS011;31823;47.032;8.310;2023-04-25T08:53:17;2.20;;;1.90;;
46084;SDS011;31823;47.032;8.310;2023-04-25T08:55:50;2.17;;;1.80;;
46084;SDS011;31823;47.032;8.310;2023-04-25T08:58:17;3.13;;;1.63;;
46084;SDS011;31823;47.032;8.310;2023-04-25T09:00:43;5.25;;;1.98;;
46084;SDS011;31823;47.032;8.310;2023-04-25T09:03:10;3.35;;;1.95;;
46084;SDS011;31823;47.032;8.310;2023-04-25T09:05:36;3.42;;;2.30;;
46084;SDS011;31823;47.032;8.310;2023-04-25T09:08:02;3.30;;;1.60;;
46084;SDS011;31823;47.032;8.310;2023-04-25T09:10:28;3.92;;;2.17;;
46084;SDS011;31823;47.032;8.310;2023-04-25T09:15:33;2.53;;;1.67;;
46084;SDS011;31823;47.032;8.310;2023-04-25T09:18:13;2.10;;;1.75;;
46084;SDS011;31823;47.032;8.310;2023-04-25T09:20:42;1.70;;;1.60;;
46084;SDS011;31823;47.032;8.310;2023-04-25T09:23:08;2.20;;;1.75;;
46084;SDS011;31823;47.032;8.310;2023-04-25T09:25:37;2.20;;;1.80;;
46084;SDS011;31823;47.032;8.310;2023-04-25T09:28:04;2.22;;;1.80;;
46084;SDS011;31823;47.032;8.310;2023-04-25T09:30:31;1.88;;;1.33;;
46084;SDS011;31823;47.032;8.310;2023-04-25T09:33:11;2.80;;;1.83;;
46084;SDS011;31823;47.032;8.310;2023-04-25T09:35:41;2.72;;;1.88;;
46084;SDS011;31823;47.032;8.310;2023-04-25T09:38:11;2.83;;;1.90;;
46084;SDS011;31823;47.032;8.310;2023-04-25T09:40:39;1.75;;;1.65;;
46084;SDS011;31823;47.032;8.310;2023-04-25T09:43:24;1.73;;;1.58;;
46084;SDS011;31823;47.032;8.310;2023-04-25T09:45:53;2.10;;;1.88;;
46084;SDS011;31823;47.032;8.310;2023-04-25T09:48:22;5.40;;;2.30;;
46084;SDS011;31823;47.032;8.310;2023-04-25T09:53:37;3.53;;;1.70;;
46084;SDS011;31823;47.032;8.310;2023-04-25T09:56:05;4.50;;;2.47;;
46084;SDS011;31823;47.032;8.310;2023-04-25T09:58:32;4.05;;;2.05;;
46084;SDS011;31823;47.032;8.310;2023-04-25T10:01:00;2.30;;;2.00;;
46084;SDS011;31823;47.032;8.310;2023-04-25T10:03:29;2.88;;;2.00;;
46084;SDS011;31823;47.032;8.310;2023-04-25T10:06:00;5.20;;;2.03;;
46084;SDS011;31823;47.032;8.310;2023-04-25T10:08:34;4.30;;;2.33;;
46084;SDS011;31823;47.032;8.310;2023-04-25T10:11:03;5.47;;;2.42;;
46084;SDS011;31823;47.032;8.310;2023-04-25T10:13:29;4.22;;;2.38;;
46084;SDS011;31823;47.032;8.310;2023-04-25T10:16:00;3.30;;;1.95;;
46084;SDS011;31823;47.032;8.310;2023-04-25T10:18:30;2.63;;;2.15;;
46084;SDS011;31823;47.032;8.310;2023-04-25T10:21:00;2.28;;;2.08;;
46084;SDS011;31823;47.032;8.310;2023-04-25T10:23:27;2.40;;;2.00;;
46084;SDS011;31823;47.032;8.310;2023-04-25T10:25:55;2.63;;;1.80;;
46084;SDS011;31823;47.032;8.310;2023-04-25T10:28:21;1.90;;;1.67;;
46084;SDS011;31823;47.032;8.310;2023-04-25T10:31:00;4.32;;;2.33;;
46084;SDS011;31823;47.032;8.310;2023-04-25T10:33:39;2.55;;;1.73;;
46084;SDS011;31823;47.032;8.310;2023-04-25T10:36:11;3.50;;;2.15;;
46084;SDS011;31823;47.032;8.310;2023-04-25T10:38:37;3.28;;;2.10;;
46084;SDS011;31823;47.032;8.310;2023-04-25T10:41:04;5.50;;;2.67;;
46084;SDS011;31823;47.032;8.310;2023-04-25T10:45:57;2.55;;;2.33;;
46084;SDS011;31823;47.032;8.310;2023-04-25T10:48:25;2.17;;;1.98;;
46084;SDS011;31823;47.032;8.310;2023-04-25T10:51:11;2.50;;;1.95;;
46084;SDS011;31823;47.032;8.310;2023-04-25T10:53:40;1.95;;;1.80;;
46084;SDS011;31823;47.032;8.310;2023-04-25T10:56:18;2.92;;;2.05;;
46084;SDS011;31823;47.032;8.310;2023-04-25T10:58:46;2.95;;;2.10;;
46084;SDS011;31823;47.032;8.310;2023-04-25T11:01:13;1.75;;;1.65;;
46084;SDS011;31823;47.032;8.310;2023-04-25T11:03:43;2.17;;;1.80;;
46084;SDS011;31823;47.032;8.310;2023-04-25T11:06:15;1.73;;;1.50;;
46084;SDS011;31823;47.032;8.310;2023-04-25T11:08:52;3.85;;;1.65;;
46084;SDS011;31823;47.032;8.310;2023-04-25T11:11:18;3.40;;;1.27;;
46084;SDS011;31823;47.032;8.310;2023-04-25T11:13:47;2.45;;;1.60;;
46084;SDS011;31823;47.032;8.310;2023-04-25T11:16:14;1.73;;;1.30;;
46084;SDS011;31823;47.032;8.310;2023-04-25T11:18:43;2.35;;;1.90;;
46084;SDS011;31823;47.032;8.310;2023-04-25T11:21:09;1.90;;;1.80;;
46084;SDS011;31823;47.032;8.310;2023-04-25T11:23:35;1.67;;;1.58;;
46084;SDS011;31823;47.032;8.310;2023-04-25T11:26:02;2.55;;;1.35;;
46084;SDS011;31823;47.032;8.310;2023-04-25T11:28:28;1.92;;;1.40;;
46084;SDS011;31823;47.032;8.310;2023-04-25T11:30:54;6.30;;;2.92;;
46084;SDS011;31823;47.032;8.310;2023-04-25T11:33:23;1.75;;;1.38;;
46084;SDS011;31823;47.032;8.310;2023-04-25T11:35:51;2.97;;;1.80;;
46084;SDS011;31823;47.032;8.310;2023-04-25T11:38:19;2.67;;;1.80;;
46084;SDS011;31823;47.032;8.310;2023-04-25T11:40:49;4.60;;;2.42;;
46084;SDS011;31823;47.032;8.310;2023-04-25T11:43:16;3.03;;;1.70;;
46084;SDS011;31823;47.032;8.310;2023-04-25T11:45:45;1.50;;;1.40;;
46084;SDS011;31823;47.032;8.310;2023-04-25T11:48:12;1.58;;;1.40;;
46084;SDS011;31823;47.032;8.310;2023-04-25T11:50:38;2.35;;;1.23;;
46084;SDS011;31823;47.032;8.310;2023-04-25T11:53:04;1.70;;;1.48;;
46084;SDS011;31823;47.032;8.310;2023-04-25T11:55:31;1.42;;;1.30;;
46084;SDS011;31823;47.032;8.310;2023-04-25T11:57:59;1.83;;;1.30;;
46084;SDS011;31823;47.032;8.310;2023-04-25T12:00:25;1.45;;;1.20;;
46084;SDS011;31823;47.032;8.310;2023-04-25T12:02:52;1.30;;;1.20;;
46084;SDS011;31823;47.032;8.310;2023-04-25T12:05:19;1.13;;;1.00;;
46084;SDS011;31823;47.032;8.310;2023-04-25T12:07:48;2.22;;;1.33;;
46084;SDS011;31823;47.032;8.310;2023-04-25T12:10:14;2.67;;;1.33;;
46084;SDS011;31823;47.032;8.310;2023-04-25T12:12:41;2.08;;;1.55;;
46084;SDS011;31823;47.032;8.310;2023-04-25T12:15:08;1.35;;;1.25;;
46084;SDS011;31823;47.032;8.310;2023-04-25T12:17:40;2.92;;;1.33;;
46084;SDS011;31823;47.032;8.310;2023-04-25T12:20:13;1.30;;;1.20;;
46084;SDS011;31823;47.032;8.310;2023-04-25T12:22:48;1.20;;;1.10;;
46084;SDS011;31823;47.032;8.310;2023-04-25T12:25:34;1.33;;;1.20;;
46084;SDS011;31823;47.032;8.310;2023-04-25T12:30:52;2.90;;;1.00;;
46084;SDS011;31823;47.032;8.310;2023-04-25T12:33:18;1.60;;;1.30;;
46084;SDS011;31823;47.032;8.310;2023-04-25T12:35:43;1.33;;;1.20;;
46084;SDS011;31823;47.032;8.310;2023-04-25T12:38:09;2.08;;;1.10;;
46084;SDS011;31823;47.032;8.310;2023-04-25T12:40:35;1.65;;;1.20;;
46084;SDS011;31823;47.032;8.310;2023-04-25T12:43:01;1.58;;;1.38;;
46084;SDS011;31823;47.032;8.310;2023-04-25T12:45:26;1.30;;;1.20;;
46084;SDS011;31823;47.032;8.310;2023-04-25T12:47:52;1.30;;;1.20;;
46084;SDS011;31823;47.032;8.310;2023-04-25T12:50:17;1.42;;;1.20;;
46084;SDS011;31823;47.032;8.310;2023-04-25T12:52:43;4.03;;;1.10;;
46084;SDS011;31823;47.032;8.310;2023-04-25T12:55:08;1.88;;;1.55;;
46084;SDS011;31823;47.032;8.310;2023-04-25T12:57:34;1.13;;;1.02;;
46084;SDS011;31823;47.032;8.310;2023-04-25T13:00:00;3.55;;;1.27;;
46084;SDS011;31823;47.032;8.310;2023-04-25T13:02:25;1.67;;;1.30;;
46084;SDS011;31823;47.032;8.310;2023-04-25T13:04:51;1.67;;;1.20;;
46084;SDS011;31823;47.032;8.310;2023-04-25T13:07:16;2.55;;;1.25;;
46084;SDS011;31823;47.032;8.310;2023-04-25T13:09:42;2.42;;;1.50;;
46084;SDS011;31823;47.032;8.310;2023-04-25T13:12:08;1.23;;;1.13;;
46084;SDS011;31823;47.032;8.310;2023-04-25T13:14:33;1.30;;;1.20;;
46084;SDS011;31823;47.032;8.310;2023-04-25T13:16:59;1.27;;;1.17;;
46084;SDS011;31823;47.032;8.310;2023-04-25T13:19:25;1.88;;;1.15;;
46084;SDS011;31823;47.032;8.310;2023-04-25T13:21:51;1.10;;;1.10;;
46084;SDS011;31823;47.032;8.310;2023-04-25T13:24:16;1.48;;;1.35;;
46084;SDS011;31823;47.032;8.310;2023-04-25T13:26:42;2.88;;;1.00;;
46084;SDS011;31823;47.032;8.310;2023-04-25T13:29:08;1.27;;;1.17;;
46084;SDS011;31823;47.032;8.310;2023-04-25T13:31:33;3.97;;;1.27;;
46084;SDS011;31823;47.032;8.310;2023-04-25T13:33:59;1.00;;;1.00;;
46084;SDS011;31823;47.032;8.310;2023-04-25T13:36:25;0.98;;;0.90;;
46084;SDS011;31823;47.032;8.310;2023-04-25T13:38:51;1.27;;;1.10;;
46084;SDS011;31823;47.032;8.310;2023-04-25T13:41:16;0.90;;;0.90;;
46084;SDS011;31823;47.032;8.310;2023-04-25T13:43:43;1.00;;;1.00;;
46084;SDS011;31823;47.032;8.310;2023-04-25T13:46:11;1.20;;;1.10;;
46084;SDS011;31823;47.032;8.310;2023-04-25T13:48:38;1.05;;;0.90;;
46084;SDS011;31823;47.032;8.310;2023-04-25T13:51:03;0.90;;;0.90;;
46084;SDS011;31823;47.032;8.310;2023-04-25T13:53:29;2.65;;;1.00;;
46084;SDS011;31823;47.032;8.310;2023-04-25T13:55:54;0.80;;;0.80;;
46084;SDS011;31823;47.032;8.310;2023-04-25T13:58:20;1.10;;;1.00;;
46084;SDS011;31823;47.032;8.310;2023-04-25T14:00:46;1.35;;;1.25;;
46084;SDS011;31823;47.032;8.310;2023-04-25T14:03:11;1.38;;;0.93;;
46084;SDS011;31823;47.032;8.310;2023-04-25T14:05:37;2.35;;;0.88;;
46084;SDS011;31823;47.032;8.310;2023-04-25T14:08:03;2.97;;;0.70;;
46084;SDS011;31823;47.032;8.310;2023-04-25T14:10:30;2.92;;;1.30;;
46084;SDS011;31823;47.032;8.310;2023-04-25T14:12:56;1.00;;;1.00;;
46084;SDS011;31823;47.032;8.310;2023-04-25T14:15:21;1.10;;;1.00;;
46084;SDS011;31823;47.032;8.310;2023-04-25T14:17:47;0.93;;;0.88;;
46084;SDS011;31823;47.032;8.310;2023-04-25T14:20:13;1.23;;;1.13;;
46084;SDS011;31823;47.032;8.310;2023-04-25T14:22:38;2.40;;;0.90;;
46084;SDS011;31823;47.032;8.310;2023-04-25T14:25:08;2.33;;;0.85;;
46084;SDS011;31823;47.032;8.310;2023-04-25T14:27:34;1.35;;;0.80;;
46084;SDS011;31823;47.032;8.310;2023-04-25T14:29:59;1.70;;;0.90;;
46084;SDS011;31823;47.032;8.310;2023-04-25T14:32:25;0.70;;;0.70;;
46084;SDS011;31823;47.032;8.310;2023-04-25T14:34:51;1.58;;;1.17;;
46084;SDS011;31823;47.032;8.310;2023-04-25T14:37:16;1.25;;;1.08;;
46084;SDS011;31823;47.032;8.310;2023-04-25T14:39:42;1.42;;;1.13;;
46084;SDS011;31823;47.032;8.310;2023-04-25T14:42:07;1.38;;;0.70;;
46084;SDS011;31823;47.032;8.310;2023-04-25T14:44:33;0.75;;;0.75;;
46084;SDS011;31823;47.032;8.310;2023-04-25T14:46:59;0.80;;;0.80;;
46084;SDS011;31823;47.032;8.310;2023-04-25T14:49:24;0.88;;;0.88;;
46084;SDS011;31823;47.032;8.310;2023-04-25T14:51:50;1.67;;;0.85;;
46084;SDS011;31823;47.032;8.310;2023-04-25T14:54:16;0.80;;;0.80;;
46084;SDS011;31823;47.032;8.310;2023-04-25T14:56:42;1.15;;;1.00;;